createdAt,value
2022-10-09T00:01:33.137Z,62.30
2022-10-09T00:04:00.462Z,62.30
2022-10-09T00:06:31.494Z,62.20
2022-10-09T00:09:02.038Z,62.20
2022-10-09T00:11:31.543Z,62.10
2022-10-09T00:13:59.305Z,62.10
2022-10-09T00:16:27.302Z,62.90
2022-10-09T00:18:57.489Z,62.10
2022-10-09T00:21:31.402Z,62.00
2022-10-09T00:24:03.470Z,62.00
2022-10-09T00:26:30.894Z,62.00
2022-10-09T00:28:57.992Z,62.10
2022-10-09T00:31:27.744Z,62.10
2022-10-09T00:33:54.926Z,62.10
2022-10-09T00:36:25.555Z,62.10
2022-10-09T00:38:54.757Z,62.10
2022-10-09T00:41:26.711Z,62.10
2022-10-09T00:43:56.668Z,62.10
2022-10-09T00:46:46.033Z,62.20
2022-10-09T00:49:28.147Z,62.20
2022-10-09T00:51:58.933Z,62.30
2022-10-09T00:54:30.220Z,62.20
2022-10-09T00:56:59.040Z,62.30
2022-10-09T00:59:26.457Z,62.40
2022-10-09T01:01:58.404Z,62.40
2022-10-09T01:04:25.740Z,62.40
2022-10-09T01:07:23.478Z,62.50
2022-10-09T01:10:22.387Z,62.70
2022-10-09T01:13:01.417Z,62.70
2022-10-09T01:15:45.751Z,62.80
2022-10-09T01:18:30.948Z,62.70
2022-10-09T01:21:22.521Z,62.80
2022-10-09T01:24:26.304Z,62.80
2022-10-09T01:27:11.231Z,62.80
2022-10-09T01:29:54.223Z,62.80
2022-10-09T01:32:28.265Z,62.80
2022-10-09T01:34:56.390Z,62.80
2022-10-09T01:37:24.757Z,62.80
2022-10-09T01:39:54.771Z,62.70
2022-10-09T01:42:23.987Z,62.70
2022-10-09T01:44:50.901Z,62.70
2022-10-09T01:47:21.010Z,62.70
2022-10-09T01:50:02.609Z,62.70
2022-10-09T01:53:07.242Z,62.80
2022-10-09T01:56:04.601Z,62.80
2022-10-09T01:58:48.456Z,63.00
2022-10-09T02:01:28.177Z,63.00
2022-10-09T02:04:00.014Z,63.10
2022-10-09T02:06:28.500Z,63.10
2022-10-09T02:08:56.231Z,63.30
2022-10-09T02:11:28.103Z,63.30
2022-10-09T02:13:58.770Z,63.30
2022-10-09T02:16:41.139Z,63.30
2022-10-09T02:19:11.171Z,63.50
2022-10-09T02:22:10.891Z,63.60
2022-10-09T02:24:40.418Z,63.90
2022-10-09T02:27:09.627Z,63.90
2022-10-09T02:29:41.964Z,64.00
2022-10-09T02:32:16.322Z,64.10
2022-10-09T02:34:45.641Z,64.20
2022-10-09T02:37:12.981Z,64.20
2022-10-09T02:39:40.001Z,64.30
2022-10-09T02:42:06.991Z,64.30
2022-10-09T02:44:36.482Z,64.40
2022-10-09T02:47:05.031Z,64.40
2022-10-09T02:49:33.141Z,64.40
2022-10-09T02:52:00.162Z,64.50
2022-10-09T02:54:28.367Z,64.50
2022-10-09T02:56:55.600Z,64.30
2022-10-09T02:59:22.524Z,64.40
2022-10-09T03:01:50.844Z,64.40
2022-10-09T03:04:19.136Z,64.30
2022-10-09T03:06:46.352Z,64.30
2022-10-09T03:09:13.324Z,64.40
2022-10-09T03:11:49.052Z,64.40
2022-10-09T03:14:16.020Z,64.40
2022-10-09T03:16:43.036Z,64.30
2022-10-09T03:19:12.341Z,64.30
2022-10-09T03:22:04.146Z,64.30
2022-10-09T03:24:29.473Z,64.30
2022-10-09T03:26:57.516Z,64.30
2022-10-09T03:29:25.762Z,64.30
2022-10-09T03:31:55.345Z,64.30
2022-10-09T03:37:14.386Z,64.30
2022-10-09T03:39:41.802Z,64.20
2022-10-09T03:42:08.769Z,64.30
2022-10-09T03:44:37.015Z,64.30
2022-10-09T03:47:04.085Z,64.30
2022-10-09T03:49:31.135Z,64.20
2022-10-09T03:52:00.590Z,64.20
2022-10-09T03:54:27.582Z,64.20
2022-10-09T03:57:41.018Z,64.20
2022-10-09T03:59:54.743Z,64.20
2022-10-09T04:02:21.749Z,64.20
2022-10-09T04:04:48.728Z,64.20
2022-10-09T04:07:15.684Z,64.20
2022-10-09T04:10:07.540Z,64.10
2022-10-09T04:12:42.951Z,64.30
2022-10-09T04:15:12.875Z,64.30
2022-10-09T04:17:40.019Z,64.20
2022-10-09T04:20:07.800Z,64.20
2022-10-09T04:22:35.943Z,64.20
2022-10-09T04:25:03.316Z,64.20
2022-10-09T04:27:31.984Z,64.10
2022-10-09T04:29:59.021Z,64.10
2022-10-09T04:32:36.365Z,64.00
2022-10-09T04:35:05.915Z,64.00
2022-10-09T04:37:41.966Z,63.90
2022-10-09T04:40:16.098Z,63.90
2022-10-09T04:42:43.077Z,63.80
2022-10-09T04:45:10.811Z,63.70
2022-10-09T04:47:38.072Z,63.70
2022-10-09T04:50:07.136Z,63.60
2022-10-09T04:52:36.590Z,63.60
2022-10-09T04:55:08.380Z,63.60
2022-10-09T04:57:37.845Z,63.40
2022-10-09T05:00:08.848Z,63.40
2022-10-09T05:02:38.874Z,63.40
2022-10-09T05:05:12.569Z,63.40
2022-10-09T05:07:39.612Z,63.30
2022-10-09T05:10:08.699Z,63.20
2022-10-09T05:12:42.548Z,63.20
2022-10-09T05:15:26.976Z,63.10
2022-10-09T05:18:00.442Z,63.10
2022-10-09T05:20:41.502Z,63.90
2022-10-09T05:23:08.495Z,62.90
2022-10-09T05:25:37.701Z,63.00
2022-10-09T05:28:06.710Z,62.90
2022-10-09T05:30:35.811Z,62.80
2022-10-09T05:33:02.689Z,62.80
2022-10-09T05:35:34.469Z,62.80
2022-10-09T05:38:04.345Z,62.70
2022-10-09T05:40:31.298Z,62.80
2022-10-09T05:43:05.561Z,62.70
2022-10-09T05:45:35.008Z,62.70
2022-10-09T05:48:01.948Z,62.70
2022-10-09T05:50:31.909Z,62.70
2022-10-09T05:53:02.207Z,62.60
2022-10-09T05:55:29.237Z,62.60
2022-10-09T05:57:56.208Z,62.50
2022-10-09T06:00:23.121Z,62.50
2022-10-09T06:02:52.909Z,62.60
2022-10-09T06:05:20.290Z,62.50
2022-10-09T06:07:49.766Z,62.60
2022-10-09T06:10:17.071Z,62.60
2022-10-09T06:12:43.986Z,62.60
2022-10-09T06:15:11.052Z,62.70
2022-10-09T06:17:40.432Z,62.70
2022-10-09T06:20:07.805Z,62.80
2022-10-09T06:22:37.231Z,62.70
2022-10-09T06:25:04.488Z,62.70
2022-10-09T06:27:33.876Z,62.70
2022-10-09T06:30:00.768Z,62.80
2022-10-09T06:32:30.193Z,62.80
2022-10-09T06:34:57.338Z,62.80
2022-10-09T06:37:26.699Z,62.80
2022-10-09T06:39:53.611Z,62.80
2022-10-09T06:42:22.958Z,62.80
2022-10-09T06:44:49.854Z,62.80
2022-10-09T06:47:16.724Z,62.90
2022-10-09T06:49:43.571Z,62.80
2022-10-09T06:52:10.401Z,62.90
2022-10-09T06:54:37.418Z,63.10
2022-10-09T06:57:08.842Z,63.00
2022-10-09T06:59:38.016Z,63.00
2022-10-09T07:02:04.993Z,63.10
2022-10-09T07:04:32.146Z,63.00
2022-10-09T07:06:58.981Z,63.00
2022-10-09T07:09:25.957Z,63.00
2022-10-09T07:11:55.370Z,63.00
2022-10-09T07:14:26.772Z,63.00
2022-10-09T07:16:54.141Z,63.00
2022-10-09T07:19:23.434Z,63.10
2022-10-09T07:21:50.901Z,63.10
2022-10-09T07:24:20.566Z,63.10
2022-10-09T07:26:53.474Z,63.10
2022-10-09T07:29:20.350Z,63.20
2022-10-09T07:31:47.628Z,63.10
2022-10-09T07:34:18.915Z,63.20
2022-10-09T07:36:45.835Z,63.40
2022-10-09T07:39:15.093Z,63.60
2022-10-09T07:41:44.069Z,63.80
2022-10-09T07:44:13.590Z,63.90
2022-10-09T07:46:40.531Z,64.10
2022-10-09T07:49:10.003Z,64.10
2022-10-09T07:51:39.335Z,63.80
2022-10-09T07:54:06.191Z,63.30
2022-10-09T07:56:35.777Z,63.70
2022-10-09T07:59:10.679Z,63.00
2022-10-09T08:01:40.378Z,62.10
2022-10-09T08:04:10.505Z,61.20
2022-10-09T08:06:39.419Z,60.50
2022-10-09T08:09:07.748Z,60.10
2022-10-09T08:11:35.388Z,60.30
2022-10-09T08:14:02.538Z,60.30
2022-10-09T08:16:34.402Z,60.00
2022-10-09T08:19:04.757Z,59.60
2022-10-09T08:21:34.057Z,59.10
2022-10-09T08:24:05.766Z,58.80
2022-10-09T08:26:32.786Z,58.50
2022-10-09T08:29:02.605Z,58.20
2022-10-09T08:31:31.672Z,57.80
2022-10-09T08:34:01.228Z,57.70
2022-10-09T08:36:32.002Z,57.10
2022-10-09T08:38:59.701Z,56.60
2022-10-09T08:41:46.958Z,56.30
2022-10-09T08:44:22.707Z,55.60
2022-10-09T08:47:09.557Z,56.10
2022-10-09T08:50:02.844Z,55.90
2022-10-09T08:52:47.872Z,55.50
2022-10-09T08:55:30.077Z,55.20
2022-10-09T08:58:07.185Z,55.10
2022-10-09T09:01:05.981Z,55.00
2022-10-09T09:04:22.179Z,54.40
2022-10-09T09:07:23.176Z,54.40
2022-10-09T09:10:00.096Z,54.40
2022-10-09T09:13:04.839Z,54.60
2022-10-09T09:15:53.176Z,54.60
2022-10-09T09:18:43.005Z,54.40
2022-10-09T09:21:53.529Z,54.40
2022-10-09T09:24:59.392Z,54.60
2022-10-09T09:27:34.406Z,54.80
2022-10-09T09:30:19.782Z,54.90
2022-10-09T09:33:01.456Z,54.90
2022-10-09T09:35:46.946Z,54.40
2022-10-09T09:38:17.239Z,54.90
2022-10-09T09:40:47.641Z,54.90
2022-10-09T09:43:24.249Z,54.90
2022-10-09T09:45:59.226Z,54.80
2022-10-09T09:48:41.106Z,54.90
2022-10-09T09:51:29.317Z,54.80
2022-10-09T09:54:04.260Z,54.90
2022-10-09T09:57:10.236Z,55.00
2022-10-09T09:59:38.846Z,54.90
2022-10-09T10:02:24.179Z,54.90
2022-10-09T10:05:27.415Z,54.70
2022-10-09T10:07:57.469Z,55.00
2022-10-09T10:10:28.121Z,55.10
2022-10-09T10:13:00.553Z,55.10
2022-10-09T10:15:35.023Z,55.00
2022-10-09T10:18:15.250Z,55.00
2022-10-09T10:20:55.860Z,54.70
2022-10-09T10:23:24.249Z,54.70
2022-10-09T10:25:56.069Z,54.80
2022-10-09T10:28:38.679Z,54.60
2022-10-09T10:31:13.461Z,54.60
2022-10-09T10:33:45.537Z,54.50
2022-10-09T10:36:14.937Z,54.10
2022-10-09T10:38:58.095Z,54.10
2022-10-09T10:41:32.419Z,53.80
2022-10-09T10:44:08.154Z,53.90
2022-10-09T10:46:42.114Z,53.50
2022-10-09T10:49:11.986Z,53.60
2022-10-09T10:51:56.290Z,53.60
2022-10-09T10:54:56.905Z,53.30
2022-10-09T10:58:01.134Z,53.70
2022-10-09T11:00:33.962Z,53.10
2022-10-09T11:03:41.140Z,53.60
2022-10-09T11:06:27.438Z,53.20
2022-10-09T11:09:17.940Z,53.00
2022-10-09T11:12:47.307Z,53.10
2022-10-09T11:15:39.643Z,53.00
2022-10-09T11:18:26.790Z,53.10
2022-10-09T11:21:25.724Z,53.70
2022-10-09T11:24:40.673Z,53.50
2022-10-09T11:27:13.524Z,53.30
2022-10-09T11:29:50.397Z,53.60
2022-10-09T11:32:29.994Z,53.00
2022-10-09T11:35:09.210Z,52.90
2022-10-09T11:37:39.865Z,52.40
2022-10-09T11:40:25.000Z,52.80
2022-10-09T11:43:14.106Z,52.80
2022-10-09T11:46:19.222Z,52.60
2022-10-09T11:48:59.966Z,53.00
2022-10-09T11:51:56.965Z,53.00
2022-10-09T11:54:27.515Z,52.90
2022-10-09T11:57:06.423Z,53.10
2022-10-09T11:59:42.012Z,52.90
2022-10-09T12:02:21.205Z,52.90
2022-10-09T12:04:56.208Z,52.60
2022-10-09T12:10:28.083Z,52.60
2022-10-09T12:13:07.317Z,52.70
2022-10-09T12:15:55.368Z,52.40
2022-10-09T12:18:39.397Z,52.60
2022-10-09T12:21:30.667Z,52.40
2022-10-09T12:23:58.502Z,52.40
2022-10-09T12:26:26.147Z,52.60
2022-10-09T12:29:01.294Z,52.80
2022-10-09T12:31:41.242Z,52.80
2022-10-09T12:34:31.638Z,52.80
2022-10-09T12:37:33.994Z,53.10
2022-10-09T12:40:26.379Z,53.50
2022-10-09T12:42:55.199Z,53.70
2022-10-09T12:45:30.073Z,53.90
2022-10-09T12:48:09.814Z,53.90
2022-10-09T12:50:36.765Z,54.60
2022-10-09T12:53:13.527Z,54.30
2022-10-09T12:55:57.739Z,54.50
2022-10-09T12:58:31.108Z,54.80
2022-10-09T13:01:03.317Z,54.80
2022-10-09T13:03:37.433Z,55.00
2022-10-09T13:06:23.225Z,55.00
2022-10-09T13:09:00.706Z,55.00
2022-10-09T13:11:40.674Z,55.20
2022-10-09T13:14:36.113Z,55.30
2022-10-09T13:17:03.643Z,55.30
2022-10-09T13:19:35.801Z,55.40
2022-10-09T13:22:19.300Z,55.20
2022-10-09T13:24:58.241Z,55.30
2022-10-09T13:27:34.390Z,55.50
2022-10-09T13:30:02.253Z,55.50
2022-10-09T13:32:29.248Z,55.60
2022-10-09T13:34:58.013Z,55.60
2022-10-09T13:37:29.063Z,55.70
2022-10-09T13:39:58.465Z,55.80
2022-10-09T13:42:29.705Z,56.00
2022-10-09T13:44:56.927Z,56.10
2022-10-09T13:47:24.844Z,56.20
2022-10-09T13:49:52.233Z,56.20
2022-10-09T13:52:19.258Z,56.40
2022-10-09T13:54:46.196Z,56.20
2022-10-09T13:57:13.121Z,56.20
2022-10-09T13:59:45.471Z,56.30
2022-10-09T14:02:14.669Z,56.50
2022-10-09T14:04:41.623Z,56.70
2022-10-09T14:07:08.720Z,56.80
2022-10-09T14:09:40.543Z,56.70
2022-10-09T14:12:12.015Z,56.70
2022-10-09T14:14:41.094Z,56.90
2022-10-09T14:17:07.934Z,57.10
2022-10-09T14:19:34.960Z,57.00
2022-10-09T14:22:04.084Z,57.10
2022-10-09T14:24:33.470Z,57.30
2022-10-09T14:27:02.915Z,57.40
2022-10-09T14:29:32.817Z,57.50
2022-10-09T14:31:59.706Z,57.70
2022-10-09T14:35:07.160Z,57.70
2022-10-09T14:38:42.435Z,57.80
2022-10-09T14:41:18.503Z,58.10
2022-10-09T14:44:16.772Z,58.20
2022-10-09T14:46:51.258Z,58.10
2022-10-09T14:49:18.627Z,58.10
2022-10-09T14:52:21.212Z,58.10
2022-10-09T14:55:06.180Z,58.50
2022-10-09T14:57:51.753Z,58.50
2022-10-09T15:00:18.973Z,58.40
2022-10-09T15:02:48.102Z,58.40
2022-10-09T15:08:44.438Z,58.50
2022-10-09T15:11:40.896Z,58.50
2022-10-09T15:14:11.281Z,58.60
2022-10-09T15:16:41.146Z,58.40
2022-10-09T15:19:29.232Z,58.50
2022-10-09T15:22:02.412Z,58.60
2022-10-09T15:24:31.424Z,58.50
2022-10-09T15:27:56.575Z,58.50
2022-10-09T15:30:24.106Z,58.40
2022-10-09T15:33:01.343Z,58.30
2022-10-09T15:35:28.291Z,58.50
2022-10-09T15:38:00.616Z,58.50
2022-10-09T15:40:53.673Z,58.60
2022-10-09T15:43:27.163Z,58.50
2022-10-09T15:46:04.439Z,58.30
2022-10-09T15:48:55.097Z,58.30
2022-10-09T15:51:43.167Z,58.30
2022-10-09T15:54:35.605Z,58.20
2022-10-09T15:57:23.793Z,58.30
2022-10-09T16:00:00.753Z,58.30
2022-10-09T16:02:33.687Z,58.40
2022-10-09T16:07:56.130Z,58.50
2022-10-09T16:10:29.383Z,58.50
2022-10-09T16:13:23.926Z,58.50
2022-10-09T16:15:52.047Z,58.80
2022-10-09T16:18:32.556Z,58.70
2022-10-09T16:21:13.935Z,58.90
2022-10-09T16:26:33.912Z,58.80
2022-10-09T16:29:04.076Z,58.90
2022-10-09T16:31:47.588Z,58.90
2022-10-09T16:34:24.914Z,58.90
2022-10-09T16:36:51.845Z,58.90
2022-10-09T16:39:32.575Z,58.90
2022-10-09T16:42:34.611Z,58.90
2022-10-09T16:45:00.614Z,59.10
2022-10-09T16:55:13.026Z,59.20
2022-10-09T16:57:56.555Z,59.20
2022-10-09T17:00:26.557Z,59.30
2022-10-09T17:03:09.949Z,59.40
2022-10-09T17:08:38.626Z,59.40
2022-10-09T17:15:01.224Z,59.60
2022-10-09T17:17:54.682Z,59.70
2022-10-09T17:20:40.002Z,59.60
2022-10-09T17:26:51.986Z,59.90
2022-10-09T17:27:53.793Z,59.70
2022-10-09T17:29:25.681Z,59.80
2022-10-09T17:34:51.748Z,60.00
2022-10-09T17:37:55.620Z,59.90
2022-10-09T17:40:50.372Z,60.00
2022-10-09T17:43:38.591Z,60.20
2022-10-09T17:46:24.548Z,60.10
2022-10-09T17:48:59.626Z,60.10
2022-10-09T17:52:23.452Z,60.20
2022-10-09T17:54:59.140Z,60.40
2022-10-09T17:57:29.228Z,60.30
2022-10-09T18:00:20.888Z,60.30
2022-10-09T18:02:59.272Z,60.30
2022-10-09T18:13:28.443Z,60.60
2022-10-09T18:15:29.390Z,60.70
2022-10-09T18:18:04.162Z,60.50
2022-10-09T18:20:38.615Z,60.50
2022-10-09T18:23:06.529Z,60.60
2022-10-09T18:25:33.882Z,60.70
2022-10-09T18:28:10.662Z,60.80
2022-10-09T18:30:46.927Z,60.90
2022-10-09T18:33:16.982Z,61.10
2022-10-09T18:35:43.988Z,61.10
2022-10-09T18:38:18.898Z,61.10
2022-10-09T18:40:50.218Z,61.10
2022-10-09T18:43:19.161Z,61.20
2022-10-09T18:45:47.426Z,61.70
2022-10-09T18:48:30.585Z,61.30
2022-10-09T18:51:01.346Z,61.20
2022-10-09T18:53:31.768Z,61.30
2022-10-09T18:56:03.591Z,62.30
2022-10-09T18:58:35.223Z,61.60
2022-10-09T19:01:07.320Z,61.70
2022-10-09T19:03:36.423Z,61.70
2022-10-09T19:06:04.704Z,61.70
2022-10-09T19:08:37.869Z,61.90
2022-10-09T19:11:09.059Z,61.90
2022-10-09T19:13:36.397Z,61.90
2022-10-09T19:16:24.340Z,62.00
2022-10-09T19:18:54.220Z,62.20
2022-10-09T19:21:21.510Z,62.00
2022-10-09T19:23:53.194Z,62.10
2022-10-09T19:26:23.849Z,62.00
2022-10-09T19:28:50.863Z,61.90
2022-10-09T19:31:17.925Z,61.90
2022-10-09T19:33:44.802Z,61.80
2022-10-09T19:36:13.915Z,61.90
2022-10-09T19:38:43.774Z,61.90
2022-10-09T19:41:15.011Z,61.90
2022-10-09T19:43:42.818Z,62.10
2022-10-09T19:46:14.421Z,62.10
2022-10-09T19:48:43.526Z,62.10
2022-10-09T19:51:21.031Z,62.00
2022-10-09T19:53:53.491Z,62.20
2022-10-09T19:56:26.041Z,62.20
2022-10-09T19:58:54.822Z,62.30
2022-10-09T20:01:25.475Z,62.30
2022-10-09T20:04:11.047Z,62.20
2022-10-09T20:06:40.871Z,62.50
2022-10-09T20:09:14.064Z,62.40
2022-10-09T20:11:41.506Z,62.40
2022-10-09T20:14:13.941Z,62.30
2022-10-09T20:16:43.700Z,62.30
2022-10-09T20:19:10.712Z,63.20
2022-10-09T20:21:40.141Z,62.40
2022-10-09T20:24:07.153Z,62.40
2022-10-09T20:26:39.790Z,62.30
2022-10-09T20:29:09.763Z,62.30
2022-10-09T20:31:36.721Z,62.40
2022-10-09T20:34:03.647Z,62.50
2022-10-09T20:36:36.458Z,62.50
2022-10-09T20:39:15.268Z,62.60
2022-10-09T20:41:43.514Z,62.80
2022-10-09T20:44:16.757Z,62.60
2022-10-09T20:46:43.728Z,62.80
2022-10-09T20:49:13.650Z,62.80
2022-10-09T20:51:42.021Z,62.70
2022-10-09T20:54:16.122Z,62.80
2022-10-09T20:56:48.215Z,62.80
2022-10-09T20:59:16.322Z,63.00
2022-10-09T21:01:43.294Z,62.90
2022-10-09T21:04:14.746Z,63.00
2022-10-09T21:06:42.565Z,63.10
2022-10-09T21:09:13.999Z,63.10
2022-10-09T21:11:41.594Z,63.10
2022-10-09T21:14:12.662Z,63.20
2022-10-09T21:16:39.856Z,63.40
2022-10-09T21:19:07.012Z,63.30
2022-10-09T21:21:34.807Z,63.40
2022-10-09T21:24:04.287Z,63.40
2022-10-09T21:26:35.661Z,63.50
2022-10-09T21:29:06.137Z,63.50
2022-10-09T21:31:36.210Z,63.60
2022-10-09T21:34:08.118Z,63.60
2022-10-09T21:37:02.160Z,63.60
2022-10-09T21:39:33.039Z,63.70
2022-10-09T21:41:59.845Z,63.80
2022-10-09T21:44:27.540Z,63.70
2022-10-09T21:46:59.033Z,63.80
2022-10-09T21:49:27.431Z,63.80
2022-10-09T21:52:00.249Z,64.00
2022-10-09T21:54:29.572Z,63.80
2022-10-09T21:56:56.382Z,63.80
2022-10-09T21:59:23.268Z,63.70
2022-10-09T22:01:54.690Z,63.80
2022-10-09T22:04:22.018Z,63.70
2022-10-09T22:06:51.319Z,63.90
2022-10-09T22:09:21.215Z,63.90
2022-10-09T22:11:50.294Z,63.90
2022-10-09T22:14:21.749Z,64.00
2022-10-09T22:16:51.109Z,64.00
2022-10-09T22:19:18.908Z,64.00
2022-10-09T22:21:48.008Z,64.00
2022-10-09T22:24:14.915Z,64.10
2022-10-09T22:26:41.745Z,64.10
2022-10-09T22:29:08.570Z,64.10
2022-10-09T22:31:35.546Z,64.10
2022-10-09T22:34:03.263Z,64.10
2022-10-09T22:36:35.125Z,64.20
2022-10-09T22:39:05.143Z,65.00
2022-10-09T22:41:34.109Z,64.20
2022-10-09T22:44:04.484Z,64.30
2022-10-09T22:46:39.585Z,64.30
2022-10-09T22:49:08.663Z,64.30
2022-10-09T22:51:37.966Z,64.40
2022-10-09T22:54:07.541Z,64.50
2022-10-09T22:56:41.905Z,64.50
2022-10-09T22:59:14.309Z,64.50
2022-10-09T23:01:54.148Z,64.50
2022-10-09T23:04:22.562Z,64.50
2022-10-09T23:06:57.120Z,64.60
2022-10-09T23:09:28.724Z,64.60
2022-10-09T23:11:55.913Z,64.60
2022-10-09T23:14:25.857Z,64.70
2022-10-09T23:16:53.040Z,64.50
2022-10-09T23:19:19.858Z,64.40
2022-10-09T23:21:49.500Z,64.50
2022-10-09T23:24:17.803Z,64.60
2022-10-09T23:26:50.004Z,64.60
2022-10-09T23:29:20.634Z,64.60
2022-10-09T23:31:52.057Z,64.70
2022-10-09T23:34:23.625Z,64.70
2022-10-09T23:36:52.618Z,64.70
2022-10-09T23:39:19.490Z,64.80
2022-10-09T23:41:46.340Z,64.60
2022-10-09T23:44:13.185Z,64.60
2022-10-09T23:46:40.089Z,64.60
2022-10-09T23:49:10.090Z,64.60
2022-10-09T23:51:39.950Z,64.60
2022-10-09T23:54:09.847Z,64.70
2022-10-09T23:56:39.604Z,64.70
2022-10-09T23:59:06.875Z,64.70
